This is the latest recevied weather packets stored in our database for station/object KD8FRE. If no packets are shown the sender has not sent any weather packets the latest 1 day(s).
| Time | Temp. | Humidity | Pressure | Rain* | Wind** | Luminosity | Snow |
|---|---|---|---|---|---|---|---|
| 1836274713 | 16.11° C | 73% | 1021.9 hPa | 0 mm | 0.45 m/s, 54° | 0 W/m² | - |
| 1836274566 | 15.56° C | 73% | 1022.1 hPa | 0 mm | 0 m/s | 0 W/m² | - |
| 1836274411 | 16.11° C | 74% | 1022.1 hPa | 0 mm | 0 m/s | 0 W/m² | - |
| 1836274265 | 16.11° C | 73% | 1022.2 hPa | 0 mm | 0 m/s | 0 W/m² | - |
| 1836274109 | 16.11° C | 74% | 1022.1 hPa | 0 mm | 0 m/s | 0 W/m² | - |
| 1778035033 | 9.44° C | 53% | 1009.1 hPa | 0 mm | 0 m/s | 0 W/m² | - |
| 1778034731 | 9.44° C | 53% | 1009 hPa | 0 mm | 0.45 m/s, 294° | 0 W/m² | - |
| 1778034428 | 10° C | 53% | 1009.4 hPa | 0 mm | 0.89 m/s, 293° | 0 W/m² | - |
| 1778034125 | 10° C | 51% | 1009.2 hPa | 0 mm | 0.89 m/s, 292° | 0 W/m² | - |
| 1778033823 | 10° C | 51% | 1008.9 hPa | 0 mm | 1.79 m/s, 286° | 0 W/m² | - |
| 1778033520 | 10° C | 50% | 1008.9 hPa | 0 mm | 0.89 m/s, 296° | 0 W/m² | - |
| 1778033217 | 10° C | 51% | 1009.1 hPa | 0 mm | 0.89 m/s, 314° | 0 W/m² | - |
| 1778032915 | 10° C | 50% | 1009.1 hPa | 0 mm | 0.89 m/s, 292° | 0 W/m² | - |
| 1778032612 | 10° C | 50% | 1009.1 hPa | 0 mm | 0.89 m/s, 302° | 0 W/m² | - |
| 1778032309 | 10° C | 50% | 1009 hPa | 0 mm | 0.89 m/s, 298° | 0 W/m² | - |
| 1778032007 | 10° C | 51% | 1008.9 hPa | 0 mm | 0.89 m/s, 287° | 0 W/m² | - |
| 1778031702 | 10° C | 50% | 1008.9 hPa | 0 mm | 0.89 m/s, 301° | 0 W/m² | - |
| 1778031400 | 10° C | 49% | 1008.7 hPa | 0 mm | 0.45 m/s, 296° | 0 W/m² | - |
| 1778031097 | 10° C | 48% | 1009 hPa | 0 mm | 0.45 m/s, 304° | 0 W/m² | - |
| 1778030793 | 10° C | 47% | 1008.5 hPa | 0 mm | 0.89 m/s, 299° | 0 W/m² | - |
| 1778030490 | 10° C | 47% | 1008.6 hPa | 0 mm | 1.34 m/s, 296° | 0 W/m² | - |
| 1778030188 | 10° C | 46% | 1008.5 hPa | 0 mm | 0.89 m/s, 306° | 0 W/m² | - |
| 1778029883 | 10° C | 46% | 1008.5 hPa | 0 mm | 1.79 m/s, 282° | 0 W/m² | - |
| 1778029582 | 10° C | 46% | 1008.6 hPa | 0 mm | 1.79 m/s, 287° | 0 W/m² | - |
| 1778029279 | 10.56° C | 45% | 1008.5 hPa | 0 mm | 0.89 m/s, 306° | 0 W/m² | - |
* Rain latest hour (hover to see other rain measurements)
** Current wind speed in m/s (hover to see current wind gust speed)